sensor_id;sensor_type;location;lat;lon;timestamp;P1;durP1;ratioP1;P2;durP2;ratioP2
29302;SDS011;60019;45.556;12.004;2022-12-07T00:05:04;12.50;;;10.32;;
29302;SDS011;60019;45.556;12.004;2022-12-07T00:11:07;11.93;;;10.23;;
29302;SDS011;60019;45.556;12.004;2022-12-07T00:17:14;11.57;;;9.82;;
29302;SDS011;60019;45.556;12.004;2022-12-07T00:23:16;11.77;;;10.07;;
29302;SDS011;60019;45.556;12.004;2022-12-07T00:29:19;12.77;;;10.32;;
29302;SDS011;60019;45.556;12.004;2022-12-07T00:35:21;12.05;;;9.43;;
29302;SDS011;60019;45.556;12.004;2022-12-07T00:41:23;11.90;;;9.40;;
29302;SDS011;60019;45.556;12.004;2022-12-07T00:47:25;11.18;;;9.52;;
29302;SDS011;60019;45.556;12.004;2022-12-07T00:53:27;11.02;;;9.52;;
29302;SDS011;60019;45.556;12.004;2022-12-07T00:59:32;11.45;;;9.77;;
29302;SDS011;60019;45.556;12.004;2022-12-07T01:05:34;10.38;;;9.25;;
29302;SDS011;60019;45.556;12.004;2022-12-07T01:11:35;10.45;;;9.05;;
29302;SDS011;60019;45.556;12.004;2022-12-07T01:17:37;13.60;;;9.70;;
29302;SDS011;60019;45.556;12.004;2022-12-07T01:23:39;10.57;;;9.48;;
29302;SDS011;60019;45.556;12.004;2022-12-07T01:29:41;10.68;;;9.35;;
29302;SDS011;60019;45.556;12.004;2022-12-07T01:35:42;11.52;;;9.48;;
29302;SDS011;60019;45.556;12.004;2022-12-07T01:41:44;9.70;;;8.40;;
29302;SDS011;60019;45.556;12.004;2022-12-07T01:47:53;10.07;;;9.07;;
29302;SDS011;60019;45.556;12.004;2022-12-07T01:53:57;11.15;;;9.40;;
29302;SDS011;60019;45.556;12.004;2022-12-07T01:59:59;11.05;;;9.57;;
29302;SDS011;60019;45.556;12.004;2022-12-07T02:06:15;10.30;;;8.65;;
29302;SDS011;60019;45.556;12.004;2022-12-07T02:12:18;10.05;;;8.57;;
29302;SDS011;60019;45.556;12.004;2022-12-07T02:18:23;12.77;;;9.07;;
29302;SDS011;60019;45.556;12.004;2022-12-07T02:30:42;9.88;;;8.85;;
29302;SDS011;60019;45.556;12.004;2022-12-07T02:36:46;10.73;;;9.43;;
29302;SDS011;60019;45.556;12.004;2022-12-07T02:42:55;9.85;;;8.55;;
29302;SDS011;60019;45.556;12.004;2022-12-07T02:48:58;10.15;;;8.05;;
29302;SDS011;60019;45.556;12.004;2022-12-07T02:55:00;7.78;;;6.97;;
29302;SDS011;60019;45.556;12.004;2022-12-07T03:19:27;8.30;;;7.22;;
29302;SDS011;60019;45.556;12.004;2022-12-07T03:25:28;9.55;;;7.70;;
29302;SDS011;60019;45.556;12.004;2022-12-07T03:31:35;9.88;;;7.55;;
29302;SDS011;60019;45.556;12.004;2022-12-07T03:37:40;9.60;;;6.95;;
29302;SDS011;60019;45.556;12.004;2022-12-07T03:43:44;8.30;;;7.40;;
29302;SDS011;60019;45.556;12.004;2022-12-07T03:49:49;7.72;;;6.65;;
29302;SDS011;60019;45.556;12.004;2022-12-07T03:55:52;8.77;;;6.30;;
29302;SDS011;60019;45.556;12.004;2022-12-07T04:01:57;7.57;;;6.78;;
29302;SDS011;60019;45.556;12.004;2022-12-07T04:07:59;7.88;;;6.45;;
29302;SDS011;60019;45.556;12.004;2022-12-07T04:14:00;9.48;;;6.25;;
29302;SDS011;60019;45.556;12.004;2022-12-07T04:20:20;8.90;;;7.13;;
29302;SDS011;60019;45.556;12.004;2022-12-07T04:26:22;7.78;;;6.75;;
29302;SDS011;60019;45.556;12.004;2022-12-07T04:32:24;8.65;;;6.85;;
29302;SDS011;60019;45.556;12.004;2022-12-07T04:38:26;7.70;;;6.53;;
29302;SDS011;60019;45.556;12.004;2022-12-07T04:44:27;9.68;;;7.22;;
29302;SDS011;60019;45.556;12.004;2022-12-07T04:50:30;9.65;;;6.95;;
29302;SDS011;60019;45.556;12.004;2022-12-07T04:56:32;9.05;;;7.60;;
29302;SDS011;60019;45.556;12.004;2022-12-07T05:02:35;8.65;;;7.15;;
29302;SDS011;60019;45.556;12.004;2022-12-07T05:08:37;9.63;;;8.05;;
29302;SDS011;60019;45.556;12.004;2022-12-07T05:14:39;8.98;;;7.68;;
29302;SDS011;60019;45.556;12.004;2022-12-07T05:20:41;8.82;;;7.28;;
29302;SDS011;60019;45.556;12.004;2022-12-07T05:26:44;9.95;;;8.15;;
29302;SDS011;60019;45.556;12.004;2022-12-07T05:32:46;11.10;;;7.18;;
29302;SDS011;60019;45.556;12.004;2022-12-07T05:38:47;9.85;;;7.63;;
29302;SDS011;60019;45.556;12.004;2022-12-07T05:44:49;9.77;;;8.10;;
29302;SDS011;60019;45.556;12.004;2022-12-07T05:50:51;9.63;;;7.90;;
29302;SDS011;60019;45.556;12.004;2022-12-07T05:56:53;10.25;;;7.22;;
29302;SDS011;60019;45.556;12.004;2022-12-07T06:02:55;9.18;;;7.20;;
29302;SDS011;60019;45.556;12.004;2022-12-07T06:08:56;11.07;;;8.60;;
29302;SDS011;60019;45.556;12.004;2022-12-07T06:14:58;11.15;;;8.93;;
29302;SDS011;60019;45.556;12.004;2022-12-07T06:21:00;17.75;;;8.30;;
29302;SDS011;60019;45.556;12.004;2022-12-07T06:27:02;12.98;;;8.93;;
29302;SDS011;60019;45.556;12.004;2022-12-07T06:33:04;13.73;;;9.52;;
29302;SDS011;60019;45.556;12.004;2022-12-07T06:39:07;13.00;;;9.30;;
29302;SDS011;60019;45.556;12.004;2022-12-07T06:45:09;12.65;;;9.25;;
29302;SDS011;60019;45.556;12.004;2022-12-07T06:51:11;13.68;;;8.65;;
29302;SDS011;60019;45.556;12.004;2022-12-07T06:57:13;12.07;;;8.82;;
29302;SDS011;60019;45.556;12.004;2022-12-07T07:03:15;15.45;;;9.30;;
29302;SDS011;60019;45.556;12.004;2022-12-07T07:09:17;14.98;;;11.15;;
29302;SDS011;60019;45.556;12.004;2022-12-07T07:15:18;18.02;;;13.25;;
29302;SDS011;60019;45.556;12.004;2022-12-07T07:21:20;20.23;;;12.85;;
29302;SDS011;60019;45.556;12.004;2022-12-07T07:27:22;19.55;;;12.55;;
29302;SDS011;60019;45.556;12.004;2022-12-07T07:33:24;15.82;;;12.27;;
29302;SDS011;60019;45.556;12.004;2022-12-07T07:39:26;15.63;;;10.95;;
29302;SDS011;60019;45.556;12.004;2022-12-07T07:45:27;12.35;;;10.30;;
29302;SDS011;60019;45.556;12.004;2022-12-07T07:51:29;15.18;;;10.00;;
29302;SDS011;60019;45.556;12.004;2022-12-07T07:57:31;12.68;;;10.00;;
29302;SDS011;60019;45.556;12.004;2022-12-07T08:03:33;15.10;;;10.18;;
29302;SDS011;60019;45.556;12.004;2022-12-07T08:09:35;14.07;;;9.77;;
29302;SDS011;60019;45.556;12.004;2022-12-07T08:15:37;13.73;;;9.73;;
29302;SDS011;60019;45.556;12.004;2022-12-07T08:21:40;13.95;;;9.60;;
29302;SDS011;60019;45.556;12.004;2022-12-07T08:27:41;14.77;;;9.68;;
29302;SDS011;60019;45.556;12.004;2022-12-07T08:33:47;13.25;;;10.13;;
29302;SDS011;60019;45.556;12.004;2022-12-07T08:39:49;11.55;;;9.30;;
29302;SDS011;60019;45.556;12.004;2022-12-07T08:45:58;11.93;;;9.02;;
29302;SDS011;60019;45.556;12.004;2022-12-07T08:52:03;12.55;;;9.77;;
29302;SDS011;60019;45.556;12.004;2022-12-07T08:58:05;11.38;;;8.48;;
29302;SDS011;60019;45.556;12.004;2022-12-07T09:04:07;10.38;;;8.73;;
29302;SDS011;60019;45.556;12.004;2022-12-07T09:10:09;11.77;;;9.05;;
29302;SDS011;60019;45.556;12.004;2022-12-07T09:16:11;14.57;;;9.98;;
29302;SDS011;60019;45.556;12.004;2022-12-07T09:22:12;13.27;;;9.18;;
29302;SDS011;60019;45.556;12.004;2022-12-07T09:28:14;13.05;;;9.18;;
29302;SDS011;60019;45.556;12.004;2022-12-07T09:34:16;14.40;;;9.52;;
29302;SDS011;60019;45.556;12.004;2022-12-07T09:40:20;12.55;;;8.32;;
29302;SDS011;60019;45.556;12.004;2022-12-07T09:46:22;11.48;;;8.77;;
29302;SDS011;60019;45.556;12.004;2022-12-07T09:52:27;9.55;;;7.75;;
29302;SDS011;60019;45.556;12.004;2022-12-07T09:58:30;9.55;;;7.53;;
29302;SDS011;60019;45.556;12.004;2022-12-07T10:04:32;11.95;;;8.05;;
29302;SDS011;60019;45.556;12.004;2022-12-07T10:10:34;12.23;;;8.07;;
29302;SDS011;60019;45.556;12.004;2022-12-07T10:16:40;9.88;;;7.63;;
29302;SDS011;60019;45.556;12.004;2022-12-07T10:23:16;8.77;;;6.50;;
29302;SDS011;60019;45.556;12.004;2022-12-07T10:35:23;9.80;;;6.80;;
29302;SDS011;60019;45.556;12.004;2022-12-07T10:41:25;9.30;;;6.63;;
29302;SDS011;60019;45.556;12.004;2022-12-07T11:12:47;8.25;;;6.18;;
29302;SDS011;60019;45.556;12.004;2022-12-07T11:18:47;9.98;;;5.88;;
29302;SDS011;60019;45.556;12.004;2022-12-07T11:24:58;9.02;;;5.30;;
29302;SDS011;60019;45.556;12.004;2022-12-07T11:37:14;7.47;;;4.90;;
29302;SDS011;60019;45.556;12.004;2022-12-07T11:49:23;8.50;;;5.22;;
29302;SDS011;60019;45.556;12.004;2022-12-07T12:07:35;18.08;;;11.02;;
29302;SDS011;60019;45.556;12.004;2022-12-07T12:26:01;12.43;;;7.38;;
29302;SDS011;60019;45.556;12.004;2022-12-07T12:32:07;13.20;;;7.22;;
29302;SDS011;60019;45.556;12.004;2022-12-07T12:50:20;10.18;;;6.03;;
29302;SDS011;60019;45.556;12.004;2022-12-07T12:56:25;7.93;;;5.55;;
29302;SDS011;60019;45.556;12.004;2022-12-07T13:02:38;7.60;;;5.18;;
29302;SDS011;60019;45.556;12.004;2022-12-07T13:08:49;8.27;;;5.07;;
29302;SDS011;60019;45.556;12.004;2022-12-07T13:14:52;7.15;;;5.55;;
29302;SDS011;60019;45.556;12.004;2022-12-07T13:26:59;9.30;;;5.63;;
29302;SDS011;60019;45.556;12.004;2022-12-07T13:33:03;17.33;;;7.05;;
29302;SDS011;60019;45.556;12.004;2022-12-07T13:45:23;24.08;;;11.90;;
29302;SDS011;60019;45.556;12.004;2022-12-07T13:51:48;23.30;;;11.55;;
29302;SDS011;60019;45.556;12.004;2022-12-07T13:57:51;26.05;;;12.75;;
29302;SDS011;60019;45.556;12.004;2022-12-07T14:03:53;22.67;;;11.90;;
29302;SDS011;60019;45.556;12.004;2022-12-07T14:16:00;19.15;;;8.95;;
29302;SDS011;60019;45.556;12.004;2022-12-07T14:22:06;15.88;;;9.52;;
29302;SDS011;60019;45.556;12.004;2022-12-07T14:28:09;20.45;;;10.65;;
29302;SDS011;60019;45.556;12.004;2022-12-07T14:34:12;19.48;;;9.50;;
29302;SDS011;60019;45.556;12.004;2022-12-07T14:40:15;17.65;;;9.27;;
29302;SDS011;60019;45.556;12.004;2022-12-07T14:46:17;13.88;;;8.15;;
29302;SDS011;60019;45.556;12.004;2022-12-07T14:52:20;10.70;;;6.97;;
29302;SDS011;60019;45.556;12.004;2022-12-07T14:58:23;10.68;;;6.93;;
29302;SDS011;60019;45.556;12.004;2022-12-07T15:04:25;19.02;;;7.28;;
29302;SDS011;60019;45.556;12.004;2022-12-07T15:10:29;12.38;;;7.85;;
29302;SDS011;60019;45.556;12.004;2022-12-07T15:16:32;13.45;;;7.93;;
29302;SDS011;60019;45.556;12.004;2022-12-07T15:22:34;11.13;;;6.53;;
29302;SDS011;60019;45.556;12.004;2022-12-07T15:28:36;10.95;;;5.97;;
29302;SDS011;60019;45.556;12.004;2022-12-07T15:34:37;14.38;;;6.63;;
29302;SDS011;60019;45.556;12.004;2022-12-07T15:40:39;13.00;;;8.15;;
29302;SDS011;60019;45.556;12.004;2022-12-07T15:46:41;14.48;;;8.60;;
29302;SDS011;60019;45.556;12.004;2022-12-07T15:52:43;14.73;;;8.07;;
29302;SDS011;60019;45.556;12.004;2022-12-07T15:58:45;14.88;;;7.75;;
29302;SDS011;60019;45.556;12.004;2022-12-07T16:04:47;13.13;;;8.20;;
29302;SDS011;60019;45.556;12.004;2022-12-07T16:10:49;16.42;;;8.75;;
29302;SDS011;60019;45.556;12.004;2022-12-07T16:16:51;14.07;;;7.57;;
29302;SDS011;60019;45.556;12.004;2022-12-07T16:22:53;12.65;;;8.35;;
29302;SDS011;60019;45.556;12.004;2022-12-07T16:28:55;10.18;;;7.40;;
29302;SDS011;60019;45.556;12.004;2022-12-07T16:34:57;41.03;;;21.48;;
29302;SDS011;60019;45.556;12.004;2022-12-07T16:40:58;23.92;;;14.55;;
29302;SDS011;60019;45.556;12.004;2022-12-07T16:47:00;20.88;;;12.63;;
29302;SDS011;60019;45.556;12.004;2022-12-07T16:53:02;20.83;;;12.93;;
29302;SDS011;60019;45.556;12.004;2022-12-07T16:59:04;19.90;;;12.15;;
29302;SDS011;60019;45.556;12.004;2022-12-07T17:05:06;16.05;;;10.57;;
29302;SDS011;60019;45.556;12.004;2022-12-07T17:11:11;18.60;;;11.05;;
29302;SDS011;60019;45.556;12.004;2022-12-07T17:17:14;17.67;;;11.68;;
29302;SDS011;60019;45.556;12.004;2022-12-07T17:23:16;22.38;;;12.45;;
29302;SDS011;60019;45.556;12.004;2022-12-07T17:29:18;24.50;;;11.82;;
29302;SDS011;60019;45.556;12.004;2022-12-07T17:35:20;16.52;;;11.10;;
29302;SDS011;60019;45.556;12.004;2022-12-07T17:41:23;16.33;;;11.05;;
29302;SDS011;60019;45.556;12.004;2022-12-07T17:47:44;21.58;;;13.75;;
29302;SDS011;60019;45.556;12.004;2022-12-07T17:53:49;24.50;;;13.73;;
29302;SDS011;60019;45.556;12.004;2022-12-07T17:59:51;27.38;;;13.13;;
29302;SDS011;60019;45.556;12.004;2022-12-07T18:05:55;32.55;;;19.65;;
29302;SDS011;60019;45.556;12.004;2022-12-07T18:11:57;31.88;;;20.42;;
29302;SDS011;60019;45.556;12.004;2022-12-07T18:17:59;28.65;;;18.88;;
29302;SDS011;60019;45.556;12.004;2022-12-07T18:24:02;27.45;;;16.77;;
29302;SDS011;60019;45.556;12.004;2022-12-07T18:30:04;33.20;;;19.27;;
29302;SDS011;60019;45.556;12.004;2022-12-07T18:36:06;27.05;;;19.17;;
29302;SDS011;60019;45.556;12.004;2022-12-07T18:42:09;30.08;;;20.45;;
29302;SDS011;60019;45.556;12.004;2022-12-07T18:48:10;25.45;;;19.55;;
29302;SDS011;60019;45.556;12.004;2022-12-07T18:54:12;29.30;;;19.90;;
29302;SDS011;60019;45.556;12.004;2022-12-07T19:00:14;34.88;;;24.08;;
29302;SDS011;60019;45.556;12.004;2022-12-07T19:06:16;50.80;;;31.60;;
29302;SDS011;60019;45.556;12.004;2022-12-07T19:12:17;92.40;;;47.83;;
29302;SDS011;60019;45.556;12.004;2022-12-07T19:18:19;89.00;;;42.47;;
29302;SDS011;60019;45.556;12.004;2022-12-07T19:24:21;57.05;;;33.67;;
29302;SDS011;60019;45.556;12.004;2022-12-07T19:30:23;49.92;;;27.95;;
29302;SDS011;60019;45.556;12.004;2022-12-07T19:36:24;50.72;;;28.50;;
29302;SDS011;60019;45.556;12.004;2022-12-07T19:42:26;45.83;;;25.95;;
29302;SDS011;60019;45.556;12.004;2022-12-07T19:48:29;28.90;;;20.80;;
29302;SDS011;60019;45.556;12.004;2022-12-07T19:54:32;33.05;;;19.73;;
29302;SDS011;60019;45.556;12.004;2022-12-07T20:00:34;31.33;;;19.75;;
29302;SDS011;60019;45.556;12.004;2022-12-07T20:06:35;32.28;;;18.90;;
29302;SDS011;60019;45.556;12.004;2022-12-07T20:12:37;29.02;;;17.98;;
29302;SDS011;60019;45.556;12.004;2022-12-07T20:24:59;26.95;;;18.35;;
29302;SDS011;60019;45.556;12.004;2022-12-07T20:31:01;34.97;;;19.00;;
29302;SDS011;60019;45.556;12.004;2022-12-07T20:37:03;37.20;;;23.95;;
29302;SDS011;60019;45.556;12.004;2022-12-07T20:43:05;35.30;;;23.13;;
29302;SDS011;60019;45.556;12.004;2022-12-07T20:49:09;36.88;;;25.52;;
29302;SDS011;60019;45.556;12.004;2022-12-07T20:55:11;37.47;;;24.63;;
29302;SDS011;60019;45.556;12.004;2022-12-07T21:01:13;34.85;;;22.83;;
29302;SDS011;60019;45.556;12.004;2022-12-07T21:07:15;30.40;;;20.73;;
29302;SDS011;60019;45.556;12.004;2022-12-07T21:13:17;32.83;;;20.98;;
29302;SDS011;60019;45.556;12.004;2022-12-07T21:19:19;33.88;;;21.77;;
29302;SDS011;60019;45.556;12.004;2022-12-07T21:25:21;35.38;;;21.60;;
29302;SDS011;60019;45.556;12.004;2022-12-07T21:31:24;32.15;;;19.88;;
29302;SDS011;60019;45.556;12.004;2022-12-07T21:37:26;28.63;;;19.60;;
29302;SDS011;60019;45.556;12.004;2022-12-07T21:43:28;28.05;;;18.63;;
29302;SDS011;60019;45.556;12.004;2022-12-07T21:49:30;31.00;;;18.98;;
29302;SDS011;60019;45.556;12.004;2022-12-07T21:55:38;30.58;;;19.10;;
29302;SDS011;60019;45.556;12.004;2022-12-07T22:01:41;25.52;;;17.50;;
29302;SDS011;60019;45.556;12.004;2022-12-07T22:07:45;28.30;;;18.35;;
29302;SDS011;60019;45.556;12.004;2022-12-07T22:13:47;31.20;;;20.10;;
29302;SDS011;60019;45.556;12.004;2022-12-07T22:26:09;25.98;;;18.65;;
29302;SDS011;60019;45.556;12.004;2022-12-07T22:32:13;26.30;;;18.10;;
29302;SDS011;60019;45.556;12.004;2022-12-07T22:38:14;29.70;;;18.52;;
29302;SDS011;60019;45.556;12.004;2022-12-07T22:44:16;24.33;;;16.58;;
29302;SDS011;60019;45.556;12.004;2022-12-07T22:50:18;22.55;;;14.52;;
29302;SDS011;60019;45.556;12.004;2022-12-07T22:56:20;23.88;;;16.30;;
29302;SDS011;60019;45.556;12.004;2022-12-07T23:02:22;20.40;;;14.45;;
29302;SDS011;60019;45.556;12.004;2022-12-07T23:08:24;21.35;;;15.77;;
29302;SDS011;60019;45.556;12.004;2022-12-07T23:14:28;19.98;;;14.18;;
29302;SDS011;60019;45.556;12.004;2022-12-07T23:20:30;20.45;;;14.02;;
29302;SDS011;60019;45.556;12.004;2022-12-07T23:26:31;22.15;;;14.60;;
29302;SDS011;60019;45.556;12.004;2022-12-07T23:32:33;21.10;;;14.07;;
29302;SDS011;60019;45.556;12.004;2022-12-07T23:38:35;16.98;;;12.52;;
29302;SDS011;60019;45.556;12.004;2022-12-07T23:44:38;22.10;;;12.48;;
29302;SDS011;60019;45.556;12.004;2022-12-07T23:50:39;19.00;;;11.85;;
29302;SDS011;60019;45.556;12.004;2022-12-07T23:56:41;15.98;;;11.00;;
